Time;durP1;ratioP1;P1;durP2;ratioP2;P2;SDS_P1;SDS_P2;PMS_P1;PMS_P2;Temp;Humidity;BMP_temperature;BMP_pressure;BME280_temperature;BME280_humidity;BME280_pressure;Samples;Min_cycle;Max_cycle;Signal;HPM_P1;HPM_P2
2021/08/29 00:01:52;;;;;;;;;12.00;6.33;;;;;;;;5019599;28;45333;-83
2021/08/29 00:04:17;;;;;;;;;6.67;5.00;;;;;;;;5011601;28;45485;-82
2021/08/29 00:06:42;;;;;;;;;8.33;6.00;;;;;;;;5016502;28;45391;-82
2021/08/29 00:09:09;;;;;;;;;15.33;8.33;;;;;;;;5014810;28;46163;-83
2021/08/29 00:11:34;;;;;;;;;7.00;4.75;;;;;;;;5015010;28;45601;-83
2021/08/29 00:13:59;;;;;;;;;8.75;7.00;;;;;;;;5012067;28;45348;-83
2021/08/29 00:16:25;;;;;;;;;7.33;6.00;;;;;;;;5013850;28;45416;-83
2021/08/29 00:18:50;;;;;;;;;8.00;7.00;;;;;;;;5019386;28;45463;-82
2021/08/29 00:21:15;;;;;;;;;8.00;6.00;;;;;;;;5003084;28;45434;-82
2021/08/29 00:23:40;;;;;;;;;7.00;6.00;;;;;;;;4997991;28;45449;-83
2021/08/29 00:26:06;;;;;;;;;8.67;6.33;;;;;;;;5003416;28;45880;-83
2021/08/29 00:28:31;;;;;;;;;6.75;5.00;;;;;;;;4998443;28;47933;-83
2021/08/29 00:30:56;;;;;;;;;7.50;6.50;;;;;;;;4986759;28;45530;-83
2021/08/29 00:33:21;;;;;;;;;9.33;8.67;;;;;;;;4990736;28;45317;-82
2021/08/29 00:35:46;;;;;;;;;8.00;6.33;;;;;;;;4992570;28;45586;-83
2021/08/29 00:38:12;;;;;;;;;9.00;6.00;;;;;;;;5010351;28;46311;-82
2021/08/29 00:40:37;;;;;;;;;12.67;7.00;;;;;;;;5018637;28;45305;-83
2021/08/29 00:43:02;;;;;;;;;8.67;7.67;;;;;;;;5015425;28;45387;-82
2021/08/29 00:45:27;;;;;;;;;7.25;6.00;;;;;;;;5016754;28;45399;-83
2021/08/29 00:47:53;;;;;;;;;9.00;7.75;;;;;;;;5018686;28;45465;-82
2021/08/29 00:50:18;;;;;;;;;10.00;7.00;;;;;;;;5015312;28;45255;-83
2021/08/29 00:52:44;;;;;;;;;9.75;8.00;;;;;;;;5017603;28;46153;-82
2021/08/29 00:55:10;;;;;;;;;12.00;7.25;;;;;;;;5018158;28;45195;-83
2021/08/29 00:57:36;;;;;;;;;8.50;8.50;;;;;;;;5016036;28;45324;-83
2021/08/29 01:00:01;;;;;;;;;12.75;10.25;;;;;;;;5015137;28;45309;-82
2021/08/29 01:02:27;;;;;;;;;14.75;10.75;;;;;;;;5016553;28;45620;-83
2021/08/29 01:05:00;;;;;;;;;12.25;12.25;;;;;;;;5021244;28;45238;-83
2021/08/29 01:07:30;;;;;;;;;13.25;9.00;;;;;;;;5014084;28;46015;-83
2021/08/29 01:09:58;;;;;;;;;14.50;10.75;;;;;;;;5022470;28;45753;-83
2021/08/29 01:12:24;;;;;;;;;13.50;9.75;;;;;;;;5026051;28;45326;-83
2021/08/29 01:14:50;;;;;;;;;11.50;9.50;;;;;;;;5031326;28;45033;-82
2021/08/29 01:17:17;;;;;;;;;18.00;13.50;;;;;;;;5011783;28;45658;-82
2021/08/29 01:20:02;;;;;;;;;9.00;9.00;;;;;;;;5013161;28;46040;-82
2021/08/29 01:22:28;;;;;;;;;11.00;10.50;;;;;;;;5013054;28;45556;-83
2021/08/29 01:24:54;;;;;;;;;12.75;9.50;;;;;;;;5015930;28;45526;-82
2021/08/29 01:27:25;;;;;;;;;19.25;12.25;;;;;;;;4998594;28;48125;-82
2021/08/29 01:29:51;;;;;;;;;9.50;8.00;;;;;;;;4992752;28;45854;-83
2021/08/29 01:32:16;;;;;;;;;10.75;10.50;;;;;;;;5014944;28;45155;-82
2021/08/29 01:34:42;;;;;;;;;8.00;8.00;;;;;;;;5012685;28;45458;-82
2021/08/29 01:37:09;;;;;;;;;14.50;10.25;;;;;;;;5019646;28;45277;-82
2021/08/29 01:39:34;;;;;;;;;10.75;8.25;;;;;;;;5013374;28;45347;-82
2021/08/29 01:42:00;;;;;;;;;9.75;8.75;;;;;;;;5018236;28;45584;-82
2021/08/29 01:44:26;;;;;;;;;11.75;6.50;;;;;;;;5012803;28;45357;-83
2021/08/29 01:46:51;;;;;;;;;12.75;7.50;;;;;;;;5014294;28;45350;-82
2021/08/29 01:49:17;;;;;;;;;12.00;6.00;;;;;;;;5013228;28;45732;-82
2021/08/29 01:51:43;;;;;;;;;8.25;6.00;;;;;;;;5019143;28;45625;-82
2021/08/29 01:54:09;;;;;;;;;10.50;7.00;;;;;;;;5001041;28;45639;-83
2021/08/29 01:56:52;;;;;;;;;8.25;7.75;;;;;;;;5000938;28;47176;-82
2021/08/29 01:59:18;;;;;;;;;12.25;7.00;;;;;;;;5011000;28;45476;-82
2021/08/29 02:01:43;;;;;;;;;12.67;7.67;;;;;;;;4994723;28;45390;-82
2021/08/29 02:04:09;;;;;;;;;10.50;7.00;;;;;;;;5008691;28;45376;-82
2021/08/29 02:06:41;;;;;;;;;9.00;7.50;;;;;;;;5013346;28;45412;-82
2021/08/29 02:09:07;;;;;;;;;9.50;7.75;;;;;;;;5012966;28;45440;-82
2021/08/29 02:11:40;;;;;;;;;11.50;8.00;;;;;;;;4993794;28;45463;-82
2021/08/29 02:14:08;;;;;;;;;6.00;6.00;;;;;;;;4996388;28;46473;-82
2021/08/29 02:16:35;;;;;;;;;9.25;8.25;;;;;;;;5012266;28;45403;-82
2021/08/29 02:19:01;;;;;;;;;13.00;6.00;;;;;;;;5013858;28;45411;-83
2021/08/29 02:21:27;;;;;;;;;14.75;8.00;;;;;;;;4998910;28;45449;-83
2021/08/29 02:23:52;;;;;;;;;10.00;9.25;;;;;;;;5014365;28;45487;-83
2021/08/29 02:26:17;;;;;;;;;11.50;10.25;;;;;;;;4999765;28;47410;-83
2021/08/29 02:28:43;;;;;;;;;12.00;7.75;;;;;;;;4998459;28;45430;-83
2021/08/29 02:31:09;;;;;;;;;7.00;3.50;;;;;;;;5001014;28;45450;-83
2021/08/29 02:33:34;;;;;;;;;9.00;8.50;;;;;;;;5015197;28;45585;-83
2021/08/29 02:36:01;;;;;;;;;12.00;10.50;;;;;;;;5017148;28;45570;-83
2021/08/29 02:38:27;;;;;;;;;14.75;9.00;;;;;;;;5013961;28;45349;-83
2021/08/29 02:40:53;;;;;;;;;12.25;9.75;;;;;;;;5018314;28;45435;-83
2021/08/29 02:43:19;;;;;;;;;12.50;9.75;;;;;;;;5000211;28;45741;-83
2021/08/29 02:45:45;;;;;;;;;9.25;8.75;;;;;;;;5018784;28;45739;-83
2021/08/29 02:48:10;;;;;;;;;9.50;9.50;;;;;;;;5015967;28;45365;-83
2021/08/29 02:50:36;;;;;;;;;14.75;9.00;;;;;;;;5003576;28;45449;-82
2021/08/29 02:53:02;;;;;;;;;8.00;7.50;;;;;;;;4999480;28;45446;-83
2021/08/29 02:55:27;;;;;;;;;12.75;9.75;;;;;;;;5014395;28;45340;-83
2021/08/29 02:58:13;;;;;;;;;14.75;10.25;;;;;;;;5018066;28;45253;-82
2021/08/29 03:00:38;;;;;;;;;16.25;8.75;;;;;;;;5010875;28;45318;-83
2021/08/29 03:03:03;;;;;;;;;13.00;11.00;;;;;;;;5017685;28;45569;-83
2021/08/29 03:05:29;;;;;;;;;10.50;10.50;;;;;;;;5013214;28;45439;-83
2021/08/29 03:07:54;;;;;;;;;11.00;9.00;;;;;;;;5015226;28;45467;-83
2021/08/29 03:10:19;;;;;;;;;8.00;8.00;;;;;;;;5007355;28;45514;-83
2021/08/29 03:12:45;;;;;;;;;15.50;9.75;;;;;;;;5013107;28;45500;-83
2021/08/29 03:15:13;;;;;;;;;12.00;10.67;;;;;;;;4989897;28;48581;-84
2021/08/29 03:17:38;;;;;;;;;15.25;9.25;;;;;;;;4999834;28;45360;-83
2021/08/29 03:20:07;;;;;;;;;7.75;7.75;;;;;;;;5011181;28;45381;-83
2021/08/29 03:22:36;;;;;;;;;12.00;9.50;;;;;;;;5020868;28;45416;-83
2021/08/29 03:25:02;;;;;;;;;16.25;10.50;;;;;;;;5018877;28;45519;-83
2021/08/29 03:27:27;;;;;;;;;12.00;10.50;;;;;;;;5004361;28;45447;-83
2021/08/29 03:29:52;;;;;;;;;8.00;7.75;;;;;;;;5001392;28;45957;-83
2021/08/29 03:32:18;;;;;;;;;9.00;7.00;;;;;;;;5021976;28;45404;-82
2021/08/29 03:34:44;;;;;;;;;12.50;9.00;;;;;;;;5013818;28;46631;-83
2021/08/29 03:37:09;;;;;;;;;12.00;7.75;;;;;;;;5016161;28;45300;-83
2021/08/29 03:39:35;;;;;;;;;10.00;7.50;;;;;;;;5012530;28;45544;-83
2021/08/29 03:42:01;;;;;;;;;8.00;6.50;;;;;;;;5012871;28;45305;-83
2021/08/29 03:44:26;;;;;;;;;14.75;8.50;;;;;;;;5020002;28;46492;-82
2021/08/29 03:46:52;;;;;;;;;9.50;7.75;;;;;;;;5017760;28;45431;-83
2021/08/29 03:49:18;;;;;;;;;12.00;11.00;;;;;;;;5011604;28;45735;-83
2021/08/29 03:51:43;;;;;;;;;12.00;8.00;;;;;;;;5009372;28;45347;-83
2021/08/29 03:54:11;;;;;;;;;8.67;8.00;;;;;;;;4996876;28;48428;-82
2021/08/29 03:56:36;;;;;;;;;7.50;7.50;;;;;;;;5015557;28;45449;-83
2021/08/29 03:59:02;;;;;;;;;9.75;9.00;;;;;;;;5013219;28;45336;-83
2021/08/29 04:01:27;;;;;;;;;8.50;8.00;;;;;;;;5017033;28;45507;-83
2021/08/29 04:03:53;;;;;;;;;9.75;6.75;;;;;;;;5017523;28;45457;-83
2021/08/29 04:06:18;;;;;;;;;9.50;8.25;;;;;;;;5016769;28;45389;-83
2021/08/29 04:08:49;;;;;;;;;8.75;8.25;;;;;;;;5014965;28;45309;-83
2021/08/29 04:11:14;;;;;;;;;11.00;9.25;;;;;;;;5014869;28;45367;-83
2021/08/29 04:13:40;;;;;;;;;10.50;7.50;;;;;;;;5011423;28;46374;-80
2021/08/29 04:16:05;;;;;;;;;9.25;6.75;;;;;;;;4995090;28;45644;-82
2021/08/29 04:18:40;;;;;;;;;10.00;7.00;;;;;;;;5018253;28;45442;-83
2021/08/29 04:21:06;;;;;;;;;11.25;8.25;;;;;;;;5003834;28;45599;-83
2021/08/29 04:23:31;;;;;;;;;10.25;7.50;;;;;;;;5017502;28;46158;-83
2021/08/29 04:25:56;;;;;;;;;7.25;7.25;;;;;;;;5004600;28;45366;-83
2021/08/29 04:28:22;;;;;;;;;9.00;6.75;;;;;;;;5019005;28;45462;-83
2021/08/29 04:30:48;;;;;;;;;12.75;8.00;;;;;;;;5008203;28;45550;-83
2021/08/29 04:33:13;;;;;;;;;12.75;9.00;;;;;;;;5006893;28;48426;-82
2021/08/29 04:35:39;;;;;;;;;11.67;10.00;;;;;;;;5021322;28;45277;-83
2021/08/29 04:38:04;;;;;;;;;12.00;7.33;;;;;;;;5020289;28;45387;-83
2021/08/29 04:40:31;;;;;;;;;15.33;12.33;;;;;;;;5017478;28;45428;-83
2021/08/29 04:42:56;;;;;;;;;11.00;9.50;;;;;;;;5028935;28;45261;-83
2021/08/29 04:45:21;;;;;;;;;11.00;10.00;;;;;;;;5025164;28;45272;-83
2021/08/29 04:47:46;;;;;;;;;9.50;8.25;;;;;;;;5001455;28;45308;-82
2021/08/29 04:50:12;;;;;;;;;12.67;9.00;;;;;;;;5020708;28;45343;-83
2021/08/29 04:52:37;;;;;;;;;15.00;10.33;;;;;;;;5015246;28;45747;-83
2021/08/29 04:55:02;;;;;;;;;15.00;9.00;;;;;;;;5016854;28;45419;-83
2021/08/29 04:57:27;;;;;;;;;9.25;9.25;;;;;;;;5019678;28;45430;-83
2021/08/29 04:59:53;;;;;;;;;8.67;6.00;;;;;;;;5012293;28;45206;-83
2021/08/29 05:02:18;;;;;;;;;8.67;7.33;;;;;;;;4993853;28;47998;-83
2021/08/29 05:04:43;;;;;;;;;8.00;5.50;;;;;;;;5014729;28;45734;-83
2021/08/29 05:07:08;;;;;;;;;5.25;5.25;;;;;;;;5015767;28;45435;-83
2021/08/29 05:09:34;;;;;;;;;9.67;6.33;;;;;;;;4996508;28;46300;-83
2021/08/29 05:11:59;;;;;;;;;8.00;7.33;;;;;;;;5010249;28;46273;-83
2021/08/29 05:14:24;;;;;;;;;8.75;5.75;;;;;;;;5014152;28;45625;-83
2021/08/29 05:16:49;;;;;;;;;6.00;6.00;;;;;;;;4995691;28;45447;-83
2021/08/29 05:19:15;;;;;;;;;8.00;7.00;;;;;;;;5014348;28;46181;-83
2021/08/29 05:21:40;;;;;;;;;9.50;7.75;;;;;;;;5007054;28;46201;-83
2021/08/29 05:24:05;;;;;;;;;8.00;6.67;;;;;;;;5018472;28;45318;-83
2021/08/29 05:26:31;;;;;;;;;15.00;10.75;;;;;;;;5019547;28;45441;-83
2021/08/29 05:28:56;;;;;;;;;17.33;10.33;;;;;;;;5016593;28;45417;-83
2021/08/29 05:31:21;;;;;;;;;9.50;8.00;;;;;;;;5017155;28;45885;-83
2021/08/29 05:33:46;;;;;;;;;10.33;7.00;;;;;;;;5016871;28;45503;-83
2021/08/29 05:36:12;;;;;;;;;11.00;9.00;;;;;;;;5016767;28;45349;-83
2021/08/29 05:38:37;;;;;;;;;12.00;10.00;;;;;;;;5001559;28;45452;-83
2021/08/29 05:41:02;;;;;;;;;7.67;7.33;;;;;;;;4996954;28;47590;-83
2021/08/29 05:43:27;;;;;;;;;13.67;10.00;;;;;;;;5015044;28;45534;-83
2021/08/29 05:45:53;;;;;;;;;11.00;10.00;;;;;;;;5008551;28;45472;-83
2021/08/29 05:48:18;;;;;;;;;12.00;10.00;;;;;;;;4996881;28;45666;-83
2021/08/29 05:50:43;;;;;;;;;13.67;10.67;;;;;;;;5016225;28;46531;-83
2021/08/29 05:53:08;;;;;;;;;13.00;8.33;;;;;;;;4999702;28;45301;-83
2021/08/29 05:55:33;;;;;;;;;15.00;10.33;;;;;;;;5016969;28;45230;-82
2021/08/29 05:57:59;;;;;;;;;9.33;9.33;;;;;;;;5017917;28;45556;-82
2021/08/29 06:00:24;;;;;;;;;12.67;9.33;;;;;;;;5015281;28;46054;-83
2021/08/29 06:02:49;;;;;;;;;11.25;10.25;;;;;;;;5017908;28;45560;-83
2021/08/29 06:05:14;;;;;;;;;15.67;9.67;;;;;;;;4997505;28;45411;-83
2021/08/29 06:07:40;;;;;;;;;8.67;8.67;;;;;;;;5015006;28;45360;-83
2021/08/29 06:10:05;;;;;;;;;10.33;8.67;;;;;;;;5013064;28;45682;-83
2021/08/29 06:12:30;;;;;;;;;9.25;8.00;;;;;;;;4995959;28;45424;-83
2021/08/29 06:14:55;;;;;;;;;9.33;9.00;;;;;;;;5014274;28;45345;-83
2021/08/29 06:17:21;;;;;;;;;10.00;6.33;;;;;;;;5019391;28;45321;-83
2021/08/29 06:19:46;;;;;;;;;10.33;7.33;;;;;;;;4990973;28;47073;-83
2021/08/29 06:22:11;;;;;;;;;10.67;8.33;;;;;;;;5019364;28;45466;-83
2021/08/29 06:24:36;;;;;;;;;10.33;8.33;;;;;;;;5016681;28;45568;-83
2021/08/29 06:27:02;;;;;;;;;9.00;6.75;;;;;;;;5001099;28;45943;-83
2021/08/29 06:29:27;;;;;;;;;8.75;7.00;;;;;;;;4999327;28;47136;-83
2021/08/29 06:31:52;;;;;;;;;7.67;6.33;;;;;;;;5017641;28;45365;-83
2021/08/29 06:34:17;;;;;;;;;7.00;7.00;;;;;;;;5015706;28;45541;-83
2021/08/29 06:36:44;;;;;;;;;8.25;8.00;;;;;;;;4998794;28;45569;-83
2021/08/29 06:39:09;;;;;;;;;11.50;8.00;;;;;;;;4994479;28;47241;-83
2021/08/29 06:41:34;;;;;;;;;7.00;7.00;;;;;;;;4997043;28;45375;-83
2021/08/29 06:43:59;;;;;;;;;8.33;7.00;;;;;;;;5015927;28;45436;-83
2021/08/29 06:46:25;;;;;;;;;7.67;6.67;;;;;;;;5016719;28;45407;-83
2021/08/29 06:48:50;;;;;;;;;8.25;7.00;;;;;;;;4995792;28;48066;-83
2021/08/29 06:51:15;;;;;;;;;6.00;5.00;;;;;;;;5019059;28;45515;-83
2021/08/29 06:53:40;;;;;;;;;9.00;6.00;;;;;;;;5012951;28;45406;-83
2021/08/29 06:56:05;;;;;;;;;6.33;4.33;;;;;;;;5016702;28;45519;-83
2021/08/29 06:58:31;;;;;;;;;12.00;6.67;;;;;;;;5017083;28;46152;-83
2021/08/29 07:00:56;;;;;;;;;9.33;5.33;;;;;;;;5008432;28;45372;-83
2021/08/29 07:03:21;;;;;;;;;6.00;4.50;;;;;;;;4999265;28;45496;-83
2021/08/29 07:05:46;;;;;;;;;9.00;6.75;;;;;;;;5018918;28;45469;-83
2021/08/29 07:08:12;;;;;;;;;8.67;5.00;;;;;;;;5019677;28;45515;-83
2021/08/29 07:10:37;;;;;;;;;6.00;6.00;;;;;;;;5013415;28;45438;-83
2021/08/29 07:13:02;;;;;;;;;10.33;6.00;;;;;;;;5018974;28;45372;-83
2021/08/29 07:15:28;;;;;;;;;7.00;4.00;;;;;;;;4996449;28;45960;-83
2021/08/29 07:17:53;;;;;;;;;9.75;5.50;;;;;;;;5002905;28;45413;-83
2021/08/29 07:20:18;;;;;;;;;6.00;6.00;;;;;;;;5014819;28;45316;-83
2021/08/29 07:22:43;;;;;;;;;7.33;6.00;;;;;;;;5003947;28;46602;-83
2021/08/29 07:25:09;;;;;;;;;8.00;6.00;;;;;;;;5005027;28;46169;-83
2021/08/29 07:27:34;;;;;;;;;9.00;6.00;;;;;;;;5022354;28;45591;-83
2021/08/29 07:29:59;;;;;;;;;4.00;4.00;;;;;;;;4995586;28;45418;-83
2021/08/29 07:32:24;;;;;;;;;4.25;4.00;;;;;;;;5019325;28;45296;-83
2021/08/29 07:34:50;;;;;;;;;6.33;5.00;;;;;;;;5013879;28;45376;-83
2021/08/29 07:37:15;;;;;;;;;4.25;4.25;;;;;;;;4996659;28;47008;-83
2021/08/29 07:39:40;;;;;;;;;5.00;5.00;;;;;;;;5013249;28;45215;-83
2021/08/29 07:42:05;;;;;;;;;6.67;5.00;;;;;;;;5012169;28;46673;-83
2021/08/29 07:44:31;;;;;;;;;7.00;5.67;;;;;;;;5010848;28;45460;-83
2021/08/29 07:46:56;;;;;;;;;9.00;5.33;;;;;;;;5020010;28;45364;-83
2021/08/29 07:49:21;;;;;;;;;6.33;6.00;;;;;;;;5017459;28;45392;-83
2021/08/29 07:51:46;;;;;;;;;7.00;7.00;;;;;;;;5003820;28;45246;-83
2021/08/29 07:54:11;;;;;;;;;6.25;5.50;;;;;;;;5014377;28;45416;-84
2021/08/29 07:56:37;;;;;;;;;5.67;5.00;;;;;;;;5002993;28;46366;-84
2021/08/29 07:59:02;;;;;;;;;9.33;5.00;;;;;;;;5002038;28;45443;-83
2021/08/29 08:01:27;;;;;;;;;5.00;5.00;;;;;;;;5018277;28;45427;-84
2021/08/29 08:03:52;;;;;;;;;10.50;6.25;;;;;;;;5018141;28;45376;-84
2021/08/29 08:06:18;;;;;;;;;8.33;6.00;;;;;;;;5021689;28;46600;-83
2021/08/29 08:08:43;;;;;;;;;6.33;5.67;;;;;;;;5016721;28;45466;-83
2021/08/29 08:11:08;;;;;;;;;8.67;8.00;;;;;;;;5017832;28;45290;-84
2021/08/29 08:13:33;;;;;;;;;7.00;6.00;;;;;;;;4996545;28;45413;-84
2021/08/29 08:15:59;;;;;;;;;7.00;6.00;;;;;;;;5037993;28;46011;-83
2021/08/29 08:18:25;;;;;;;;;9.00;7.00;;;;;;;;5015493;28;45364;-83
2021/08/29 08:20:51;;;;;;;;;7.25;5.75;;;;;;;;5023628;28;44933;-84
2021/08/29 08:23:16;;;;;;;;;8.00;7.25;;;;;;;;5000007;28;45435;-83
2021/08/29 08:25:41;;;;;;;;;7.33;7.00;;;;;;;;5021938;28;45519;-84
2021/08/29 08:28:06;;;;;;;;;8.75;7.50;;;;;;;;5017784;28;45471;-83
2021/08/29 08:30:32;;;;;;;;;8.00;7.00;;;;;;;;5001892;28;45360;-83
2021/08/29 08:32:57;;;;;;;;;8.00;8.00;;;;;;;;5008725;28;45789;-84
2021/08/29 08:35:22;;;;;;;;;7.00;6.00;;;;;;;;4997997;28;47133;-83
2021/08/29 08:37:47;;;;;;;;;9.50;6.50;;;;;;;;5001748;28;45449;-83
2021/08/29 08:40:13;;;;;;;;;7.00;6.00;;;;;;;;4999068;28;45385;-83
2021/08/29 08:42:39;;;;;;;;;6.75;5.50;;;;;;;;5013417;28;45375;-83
2021/08/29 08:45:04;;;;;;;;;9.50;4.50;;;;;;;;5010300;28;45324;-83
2021/08/29 08:47:31;;;;;;;;;5.50;5.00;;;;;;;;5020692;28;45246;-83
2021/08/29 08:49:58;;;;;;;;;6.50;4.00;;;;;;;;5014332;28;45605;-83
2021/08/29 08:52:27;;;;;;;;;7.25;4.25;;;;;;;;5008468;28;45362;-83
2021/08/29 08:54:53;;;;;;;;;6.00;5.00;;;;;;;;5016987;28;45529;-84
2021/08/29 08:57:19;;;;;;;;;5.75;5.00;;;;;;;;5020476;28;45428;-83
2021/08/29 08:59:47;;;;;;;;;4.25;3.75;;;;;;;;5015233;28;45313;-83
2021/08/29 09:02:23;;;;;;;;;8.00;4.00;;;;;;;;4999817;28;46619;-83
2021/08/29 09:04:48;;;;;;;;;6.50;5.00;;;;;;;;5014629;28;45270;-84
2021/08/29 09:07:13;;;;;;;;;4.50;4.50;;;;;;;;5007282;28;45458;-83
2021/08/29 09:09:39;;;;;;;;;7.00;6.00;;;;;;;;5013631;28;45486;-84
2021/08/29 09:12:05;;;;;;;;;9.50;6.00;;;;;;;;4994974;28;46096;-83
2021/08/29 09:14:45;;;;;;;;;6.00;5.00;;;;;;;;4994970;28;46993;-84
2021/08/29 09:17:28;;;;;;;;;6.50;5.00;;;;;;;;5009194;28;45569;-84
2021/08/29 09:20:15;;;;;;;;;6.00;4.75;;;;;;;;5008619;28;45285;-84
2021/08/29 09:22:41;;;;;;;;;7.00;7.00;;;;;;;;5002256;28;45514;-84
2021/08/29 09:25:15;;;;;;;;;7.00;6.00;;;;;;;;4991828;28;48065;-84
2021/08/29 09:27:41;;;;;;;;;6.00;6.00;;;;;;;;5019098;28;45552;-82
2021/08/29 09:30:06;;;;;;;;;8.50;6.00;;;;;;;;5016574;28;45287;-84
2021/08/29 09:32:32;;;;;;;;;5.75;5.75;;;;;;;;5019588;28;45387;-84
2021/08/29 09:35:02;;;;;;;;;5.00;5.00;;;;;;;;5015777;28;45431;-83
2021/08/29 09:37:27;;;;;;;;;6.25;4.00;;;;;;;;5020017;28;45365;-84
2021/08/29 09:40:11;;;;;;;;;7.67;5.00;;;;;;;;5010182;28;45380;-83
2021/08/29 09:42:43;;;;;;;;;5.00;5.00;;;;;;;;5011819;28;45452;-83
2021/08/29 09:45:09;;;;;;;;;8.50;5.50;;;;;;;;5014616;28;45578;-83
2021/08/29 09:47:34;;;;;;;;;5.50;5.50;;;;;;;;5021598;28;45406;-83
2021/08/29 09:50:03;;;;;;;;;5.00;5.00;;;;;;;;5006962;28;45425;-83
2021/08/29 09:52:28;;;;;;;;;5.00;5.00;;;;;;;;5007118;28;45525;-83
2021/08/29 09:54:54;;;;;;;;;5.00;4.33;;;;;;;;5015433;28;45485;-83
2021/08/29 09:57:20;;;;;;;;;6.00;5.00;;;;;;;;5001672;28;45570;-83
2021/08/29 09:59:49;;;;;;;;;6.50;6.50;;;;;;;;5011919;28;45451;-83
2021/08/29 10:02:25;;;;;;;;;8.00;6.00;;;;;;;;4995724;28;45503;-84
2021/08/29 10:05:09;;;;;;;;;6.00;4.25;;;;;;;;5014300;28;45449;-83
2021/08/29 10:07:35;;;;;;;;;6.00;4.50;;;;;;;;5006021;28;45458;-83
2021/08/29 10:10:19;;;;;;;;;7.75;7.75;;;;;;;;5013672;28;45928;-83
2021/08/29 10:12:45;;;;;;;;;6.00;6.00;;;;;;;;5015597;28;45529;-83
2021/08/29 10:15:10;;;;;;;;;7.25;5.00;;;;;;;;5011262;28;46128;-83
2021/08/29 10:17:36;;;;;;;;;7.75;5.25;;;;;;;;5011888;28;45533;-83
2021/08/29 10:20:01;;;;;;;;;7.00;5.50;;;;;;;;5006555;28;45395;-84
2021/08/29 10:22:26;;;;;;;;;7.75;5.00;;;;;;;;5014885;28;45723;-83
2021/08/29 10:24:52;;;;;;;;;9.00;6.00;;;;;;;;5011644;28;47180;-83
2021/08/29 10:27:18;;;;;;;;;7.75;6.75;;;;;;;;5018480;28;45458;-84
2021/08/29 10:29:49;;;;;;;;;8.00;8.00;;;;;;;;5016179;28;45494;-83
2021/08/29 10:32:18;;;;;;;;;11.25;7.25;;;;;;;;5018466;28;45661;-83
2021/08/29 10:34:44;;;;;;;;;8.25;6.50;;;;;;;;5011330;28;47102;-83
2021/08/29 10:37:09;;;;;;;;;10.00;7.00;;;;;;;;5018949;28;45252;-83
2021/08/29 10:39:35;;;;;;;;;10.50;9.00;;;;;;;;5010904;28;45422;-83
2021/08/29 10:42:01;;;;;;;;;8.50;7.00;;;;;;;;5019140;28;45281;-83
2021/08/29 10:44:27;;;;;;;;;8.00;8.00;;;;;;;;5006386;28;47349;-84
2021/08/29 10:46:53;;;;;;;;;6.25;6.25;;;;;;;;5004701;28;45251;-84
2021/08/29 10:49:19;;;;;;;;;7.75;7.50;;;;;;;;5012473;28;45451;-84
2021/08/29 10:51:46;;;;;;;;;6.00;6.00;;;;;;;;5014704;28;45490;-84
2021/08/29 10:54:12;;;;;;;;;9.75;8.00;;;;;;;;5012247;28;45496;-84
2021/08/29 10:56:38;;;;;;;;;8.00;6.50;;;;;;;;5017653;28;45484;-84
2021/08/29 10:59:06;;;;;;;;;6.75;6.75;;;;;;;;5011472;28;45430;-84
2021/08/29 11:01:42;;;;;;;;;9.00;7.25;;;;;;;;5013044;28;45562;-84
2021/08/29 11:04:22;;;;;;;;;8.00;6.00;;;;;;;;5007421;28;47984;-84
2021/08/29 11:06:49;;;;;;;;;7.25;7.00;;;;;;;;5014464;28;45449;-84
2021/08/29 11:09:34;;;;;;;;;7.25;7.00;;;;;;;;5009244;28;45368;-84
2021/08/29 11:12:19;;;;;;;;;7.00;7.00;;;;;;;;5012287;28;45489;-84
2021/08/29 11:14:52;;;;;;;;;7.25;4.75;;;;;;;;5001057;28;46164;-83
2021/08/29 11:17:20;;;;;;;;;5.75;5.25;;;;;;;;5013118;28;45441;-83
2021/08/29 11:19:47;;;;;;;;;7.00;6.75;;;;;;;;5004252;28;45397;-84
2021/08/29 11:22:13;;;;;;;;;7.00;7.00;;;;;;;;5012728;28;45248;-84
2021/08/29 11:24:53;;;;;;;;;9.00;8.00;;;;;;;;5010631;28;46198;-84
2021/08/29 11:27:34;;;;;;;;;8.00;7.00;;;;;;;;5003828;28;46026;-84
2021/08/29 11:30:06;;;;;;;;;9.00;6.00;;;;;;;;5010102;28;45495;-84
2021/08/29 11:32:31;;;;;;;;;9.75;8.00;;;;;;;;5017369;28;45568;-84
2021/08/29 11:35:06;;;;;;;;;9.33;8.00;;;;;;;;5014376;28;46406;-84
2021/08/29 11:37:31;;;;;;;;;6.25;5.25;;;;;;;;5005073;28;45418;-84
2021/08/29 11:40:01;;;;;;;;;8.25;6.50;;;;;;;;5013577;28;45295;-84
2021/08/29 11:42:27;;;;;;;;;5.25;5.25;;;;;;;;5018233;28;45314;-83
2021/08/29 11:44:53;;;;;;;;;8.25;6.00;;;;;;;;5018425;28;45514;-84
2021/08/29 11:47:18;;;;;;;;;7.25;6.25;;;;;;;;5022009;28;45353;-84
2021/08/29 11:49:51;;;;;;;;;11.75;10.75;;;;;;;;5007181;28;45399;-83
2021/08/29 11:52:24;;;;;;;;;7.00;7.00;;;;;;;;5019458;28;45448;-83
2021/08/29 11:55:01;;;;;;;;;6.50;6.50;;;;;;;;5019560;28;48391;-83
2021/08/29 11:57:26;;;;;;;;;6.25;6.25;;;;;;;;5031179;28;45410;-83
2021/08/29 12:00:03;;;;;;;;;4.67;4.67;;;;;;;;5015246;28;45476;-83
2021/08/29 12:02:36;;;;;;;;;7.50;6.00;;;;;;;;5005963;28;45332;-83
2021/08/29 12:05:11;;;;;;;;;8.00;7.00;;;;;;;;5017487;28;45405;-83
2021/08/29 12:07:37;;;;;;;;;9.50;6.00;;;;;;;;5020454;28;45613;-84
2021/08/29 12:10:04;;;;;;;;;7.00;5.25;;;;;;;;5014255;28;45519;-83
2021/08/29 12:12:29;;;;;;;;;7.75;5.00;;;;;;;;5013705;28;45633;-81
2021/08/29 12:14:55;;;;;;;;;8.50;5.75;;;;;;;;5017352;28;45978;-82
2021/08/29 12:17:21;;;;;;;;;5.50;5.00;;;;;;;;5012630;28;45405;-84
2021/08/29 12:19:50;;;;;;;;;5.00;5.00;;;;;;;;5009075;28;45417;-82
2021/08/29 12:22:16;;;;;;;;;5.75;5.50;;;;;;;;5019593;28;45664;-82
2021/08/29 12:24:42;;;;;;;;;11.75;7.00;;;;;;;;5017984;28;45522;-82
2021/08/29 12:27:08;;;;;;;;;7.75;5.75;;;;;;;;5019750;28;45439;-84
2021/08/29 12:29:50;;;;;;;;;8.50;6.75;;;;;;;;5013925;28;45400;-83
2021/08/29 12:32:16;;;;;;;;;5.25;5.25;;;;;;;;5018915;28;45527;-83
2021/08/29 12:34:42;;;;;;;;;7.75;6.75;;;;;;;;5015309;28;45400;-82
2021/08/29 12:37:09;;;;;;;;;6.00;5.00;;;;;;;;5010913;28;46279;-82
2021/08/29 12:39:35;;;;;;;;;7.50;6.00;;;;;;;;5015780;28;45509;-81
2021/08/29 12:42:13;;;;;;;;;5.00;5.00;;;;;;;;5018248;28;45641;-84
2021/08/29 12:44:38;;;;;;;;;7.25;5.00;;;;;;;;5010778;28;45392;-81
2021/08/29 12:47:03;;;;;;;;;5.00;5.00;;;;;;;;5005616;28;45428;-83
2021/08/29 12:49:29;;;;;;;;;6.75;5.00;;;;;;;;5012483;28;45558;-83
2021/08/29 12:51:54;;;;;;;;;7.00;6.00;;;;;;;;5010184;28;45566;-82
2021/08/29 12:54:19;;;;;;;;;5.75;5.75;;;;;;;;5007422;28;46356;-84
2021/08/29 12:56:50;;;;;;;;;6.00;6.00;;;;;;;;5016594;28;45832;-85
2021/08/29 12:59:24;;;;;;;;;8.75;7.00;;;;;;;;5008180;28;45416;-82
2021/08/29 13:01:52;;;;;;;;;6.75;5.25;;;;;;;;5014430;28;45320;-83
2021/08/29 13:04:22;;;;;;;;;7.75;7.25;;;;;;;;5009954;28;46164;-83
2021/08/29 13:06:47;;;;;;;;;7.25;6.50;;;;;;;;5008134;28;45533;-83
2021/08/29 13:09:13;;;;;;;;;7.50;7.00;;;;;;;;5007230;28;45472;-81
2021/08/29 13:11:43;;;;;;;;;8.50;6.75;;;;;;;;5008990;28;45437;-83
2021/08/29 13:14:09;;;;;;;;;7.00;7.00;;;;;;;;5013434;28;45579;-82
2021/08/29 13:16:38;;;;;;;;;7.00;6.00;;;;;;;;5004695;28;45512;-83
2021/08/29 13:19:03;;;;;;;;;7.25;6.00;;;;;;;;5012308;28;45492;-83
2021/08/29 13:21:30;;;;;;;;;7.00;7.00;;;;;;;;5014369;28;45982;-83
2021/08/29 13:23:57;;;;;;;;;7.50;6.75;;;;;;;;5017188;28;49151;-84
2021/08/29 13:26:23;;;;;;;;;8.50;5.50;;;;;;;;5012392;28;45780;-83
2021/08/29 13:28:49;;;;;;;;;7.50;6.25;;;;;;;;5009408;28;45458;-83
2021/08/29 13:31:15;;;;;;;;;9.25;8.00;;;;;;;;5016049;28;45474;-84
2021/08/29 13:33:40;;;;;;;;;6.00;6.00;;;;;;;;5014227;28;45594;-83
2021/08/29 13:36:06;;;;;;;;;8.75;7.00;;;;;;;;5015655;28;45700;-82
2021/08/29 13:38:33;;;;;;;;;7.00;6.50;;;;;;;;5014744;28;45403;-84
2021/08/29 13:40:59;;;;;;;;;10.00;8.00;;;;;;;;5009070;28;45312;-85
2021/08/29 13:43:32;;;;;;;;;7.50;7.50;;;;;;;;5002660;28;46800;-84
2021/08/29 13:46:02;;;;;;;;;8.00;6.25;;;;;;;;5009856;28;45482;-85
2021/08/29 13:48:28;;;;;;;;;5.75;5.75;;;;;;;;5013066;28;45432;-83
2021/08/29 13:50:53;;;;;;;;;8.75;7.50;;;;;;;;5011188;28;45277;-87
2021/08/29 13:53:18;;;;;;;;;6.67;6.33;;;;;;;;5000221;28;47100;-82
2021/08/29 13:55:43;;;;;;;;;8.25;7.00;;;;;;;;5007073;28;45554;-83
2021/08/29 13:58:08;;;;;;;;;7.33;6.00;;;;;;;;5008771;28;45966;-82
2021/08/29 14:00:36;;;;;;;;;7.00;6.00;;;;;;;;5013334;28;45729;-81
2021/08/29 14:03:02;;;;;;;;;8.25;7.00;;;;;;;;5006514;28;47172;-81
2021/08/29 14:05:28;;;;;;;;;7.50;6.75;;;;;;;;5009530;28;45661;-81
2021/08/29 14:07:53;;;;;;;;;8.25;7.25;;;;;;;;5010216;28;45367;-81
2021/08/29 14:10:18;;;;;;;;;6.67;6.00;;;;;;;;5013624;28;45329;-81
2021/08/29 14:12:44;;;;;;;;;7.67;7.00;;;;;;;;4996174;28;45903;-81
2021/08/29 14:15:10;;;;;;;;;7.00;7.00;;;;;;;;5014357;28;45462;-81
2021/08/29 14:17:35;;;;;;;;;8.50;6.50;;;;;;;;5012617;28;45253;-81
2021/08/29 14:20:00;;;;;;;;;6.33;6.33;;;;;;;;4997626;28;45480;-81
2021/08/29 14:22:25;;;;;;;;;8.00;6.00;;;;;;;;5014572;28;46458;-81
2021/08/29 14:24:50;;;;;;;;;9.00;8.00;;;;;;;;5015187;28;45341;-81
2021/08/29 14:27:16;;;;;;;;;9.00;7.00;;;;;;;;4999678;28;45461;-81
2021/08/29 14:29:41;;;;;;;;;12.25;8.50;;;;;;;;5013601;28;45384;-81
2021/08/29 14:32:07;;;;;;;;;11.00;10.75;;;;;;;;5016063;28;45405;-81
2021/08/29 14:34:33;;;;;;;;;9.00;6.00;;;;;;;;5011604;28;47431;-81
2021/08/29 14:36:58;;;;;;;;;7.25;7.25;;;;;;;;5016717;28;45407;-81